Řízení letového provozu České republiky
Letiste: LKKB Aktualizace: 19.02.2018 11:50:08  UTC
 METAR LKKB 19.02. 11:00 ...
METAR LKKB 191100Z 06007KT 360V110 CAVOK 00/M04 Q1021 NOSIG=
 TAF LKKB 19.02. 05:00 ...
TAF LKKB 190500Z 1906/2006 VRB02KT CAVOK      BECMG 1910/1912 11006KT SCT040      BECMG 1918/1920 CAVOK=